sensor_id;sensor_type;location;lat;lon;timestamp;pressure;altitude;pressure_sealevel;temperature;humidity
51289;BME280;37372;52.294;5.152;2023-03-16T00:00:31;101753.53;;;4.07;61.23
51289;BME280;37372;52.294;5.152;2023-03-16T00:02:57;101756.25;;;4.07;61.22
51289;BME280;37372;52.294;5.152;2023-03-16T00:05:29;101747.25;;;4.07;61.66
51289;BME280;37372;52.294;5.152;2023-03-16T00:07:57;101742.66;;;4.07;61.40
51289;BME280;37372;52.294;5.152;2023-03-16T00:10:38;101738.09;;;4.08;61.77
51289;BME280;37372;52.294;5.152;2023-03-16T00:13:03;101726.22;;;4.09;61.98
51289;BME280;37372;52.294;5.152;2023-03-16T00:15:33;101734.00;;;4.12;62.40
51289;BME280;37372;52.294;5.152;2023-03-16T00:18:00;101724.69;;;4.15;62.01
51289;BME280;37372;52.294;5.152;2023-03-16T00:20:36;101721.47;;;4.19;61.64
51289;BME280;37372;52.294;5.152;2023-03-16T00:23:05;101713.31;;;4.11;62.35
51289;BME280;37372;52.294;5.152;2023-03-16T00:25:45;101712.81;;;4.07;62.96
51289;BME280;37372;52.294;5.152;2023-03-16T00:28:11;101704.84;;;4.06;63.19
51289;BME280;37372;52.294;5.152;2023-03-16T00:30:38;101701.25;;;4.05;63.32
51289;BME280;37372;52.294;5.152;2023-03-16T00:33:04;101702.13;;;4.06;63.86
51289;BME280;37372;52.294;5.152;2023-03-16T00:35:47;101703.63;;;4.08;63.32
51289;BME280;37372;52.294;5.152;2023-03-16T00:38:34;101701.94;;;4.07;63.75
51289;BME280;37372;52.294;5.152;2023-03-16T00:41:02;101703.28;;;4.03;63.81
51289;BME280;37372;52.294;5.152;2023-03-16T00:43:34;101710.41;;;4.04;64.18
51289;BME280;37372;52.294;5.152;2023-03-16T00:46:13;101706.34;;;4.08;63.88
51289;BME280;37372;52.294;5.152;2023-03-16T00:48:44;101702.47;;;4.19;63.72
51289;BME280;37372;52.294;5.152;2023-03-16T00:51:15;101693.13;;;4.14;64.31
51289;BME280;37372;52.294;5.152;2023-03-16T00:53:43;101686.50;;;4.16;64.18
51289;BME280;37372;52.294;5.152;2023-03-16T00:56:11;101685.66;;;4.16;64.17
51289;BME280;37372;52.294;5.152;2023-03-16T00:58:39;101679.56;;;4.22;63.93
51289;BME280;37372;52.294;5.152;2023-03-16T01:01:09;101679.56;;;4.14;64.59
51289;BME280;37372;52.294;5.152;2023-03-16T01:03:38;101675.81;;;4.15;64.41
51289;BME280;37372;52.294;5.152;2023-03-16T01:06:09;101663.25;;;4.14;64.79
51289;BME280;37372;52.294;5.152;2023-03-16T01:08:38;101670.88;;;4.10;64.86
51289;BME280;37372;52.294;5.152;2023-03-16T01:11:08;101672.56;;;4.11;65.03
51289;BME280;37372;52.294;5.152;2023-03-16T01:13:41;101665.13;;;4.13;65.18
51289;BME280;37372;52.294;5.152;2023-03-16T01:16:08;101657.13;;;4.12;65.58
51289;BME280;37372;52.294;5.152;2023-03-16T01:18:36;101651.56;;;4.13;65.57
51289;BME280;37372;52.294;5.152;2023-03-16T01:21:11;101656.63;;;4.08;65.52
51289;BME280;37372;52.294;5.152;2023-03-16T01:23:39;101649.34;;;4.08;65.72
51289;BME280;37372;52.294;5.152;2023-03-16T01:26:05;101650.19;;;4.09;65.78
51289;BME280;37372;52.294;5.152;2023-03-16T01:28:33;101643.91;;;4.08;65.89
51289;BME280;37372;52.294;5.152;2023-03-16T01:31:03;101642.03;;;4.09;66.21
51289;BME280;37372;52.294;5.152;2023-03-16T01:33:29;101643.56;;;4.12;65.80
51289;BME280;37372;52.294;5.152;2023-03-16T01:35:59;101636.25;;;4.12;65.94
51289;BME280;37372;52.294;5.152;2023-03-16T01:38:25;101641.69;;;4.12;66.15
51289;BME280;37372;52.294;5.152;2023-03-16T01:40:53;101631.69;;;4.13;66.57
51289;BME280;37372;52.294;5.152;2023-03-16T01:43:26;101619.97;;;4.12;66.63
51289;BME280;37372;52.294;5.152;2023-03-16T01:54:32;101608.44;;;4.10;67.19
51289;BME280;37372;52.294;5.152;2023-03-16T01:57:21;101601.13;;;4.11;67.36
51289;BME280;37372;52.294;5.152;2023-03-16T02:00:04;101594.19;;;4.08;67.10
51289;BME280;37372;52.294;5.152;2023-03-16T02:02:34;101608.59;;;4.08;67.08
51289;BME280;37372;52.294;5.152;2023-03-16T02:07:36;101596.56;;;4.11;67.70
51289;BME280;37372;52.294;5.152;2023-03-16T02:10:05;101593.69;;;4.13;67.39
51289;BME280;37372;52.294;5.152;2023-03-16T02:12:32;101587.06;;;4.15;67.80
51289;BME280;37372;52.294;5.152;2023-03-16T02:14:58;101590.78;;;4.14;67.75
51289;BME280;37372;52.294;5.152;2023-03-16T02:17:27;101579.09;;;4.14;68.27
51289;BME280;37372;52.294;5.152;2023-03-16T02:20:12;101580.78;;;4.15;69.14
51289;BME280;37372;52.294;5.152;2023-03-16T02:22:43;101574.50;;;4.14;68.49
51289;BME280;37372;52.294;5.152;2023-03-16T02:25:17;101577.88;;;4.16;68.50
51289;BME280;37372;52.294;5.152;2023-03-16T02:30:18;101575.69;;;4.20;69.08
51289;BME280;37372;52.294;5.152;2023-03-16T02:32:46;101574.66;;;4.21;69.05
51289;BME280;37372;52.294;5.152;2023-03-16T02:35:18;101574.66;;;4.21;69.28
51289;BME280;37372;52.294;5.152;2023-03-16T02:37:46;101570.25;;;4.20;69.13
51289;BME280;37372;52.294;5.152;2023-03-16T02:42:59;101562.78;;;4.22;70.02
51289;BME280;37372;52.294;5.152;2023-03-16T02:45:45;101572.97;;;4.20;69.61
51289;BME280;37372;52.294;5.152;2023-03-16T02:51:16;101571.59;;;4.24;70.44
51289;BME280;37372;52.294;5.152;2023-03-16T02:53:45;101575.66;;;4.28;70.48
51289;BME280;37372;52.294;5.152;2023-03-16T02:56:10;101570.56;;;4.25;70.79
51289;BME280;37372;52.294;5.152;2023-03-16T02:58:36;101569.22;;;4.21;71.46
51289;BME280;37372;52.294;5.152;2023-03-16T03:01:01;101570.41;;;4.18;71.13
51289;BME280;37372;52.294;5.152;2023-03-16T03:03:28;101560.06;;;4.22;71.18
51289;BME280;37372;52.294;5.152;2023-03-16T03:05:59;101564.66;;;4.21;72.46
51289;BME280;37372;52.294;5.152;2023-03-16T03:08:43;101561.44;;;4.26;72.05
51289;BME280;37372;52.294;5.152;2023-03-16T03:11:12;101561.75;;;4.23;72.46
51289;BME280;37372;52.294;5.152;2023-03-16T03:13:47;101555.28;;;4.24;72.93
51289;BME280;37372;52.294;5.152;2023-03-16T03:16:23;101552.44;;;4.25;72.88
51289;BME280;37372;52.294;5.152;2023-03-16T03:18:49;101553.28;;;4.26;73.29
51289;BME280;37372;52.294;5.152;2023-03-16T03:21:17;101552.94;;;4.21;74.11
51289;BME280;37372;52.294;5.152;2023-03-16T03:23:42;101550.41;;;4.19;74.49
51289;BME280;37372;52.294;5.152;2023-03-16T03:26:11;101549.38;;;4.20;74.18
51289;BME280;37372;52.294;5.152;2023-03-16T03:28:39;101545.81;;;4.20;74.28
51289;BME280;37372;52.294;5.152;2023-03-16T03:31:23;101533.59;;;4.16;74.32
51289;BME280;37372;52.294;5.152;2023-03-16T03:33:48;101530.88;;;4.16;74.82
51289;BME280;37372;52.294;5.152;2023-03-16T03:36:14;101537.50;;;4.13;75.52
51289;BME280;37372;52.294;5.152;2023-03-16T03:38:40;101534.47;;;4.08;75.87
51289;BME280;37372;52.294;5.152;2023-03-16T03:41:07;101535.63;;;4.05;76.32
51289;BME280;37372;52.294;5.152;2023-03-16T03:43:36;101530.38;;;4.04;77.67
51289;BME280;37372;52.294;5.152;2023-03-16T03:46:05;101530.38;;;4.04;76.98
51289;BME280;37372;52.294;5.152;2023-03-16T03:48:31;101529.22;;;4.06;77.22
51289;BME280;37372;52.294;5.152;2023-03-16T03:51:22;101525.78;;;4.04;77.01
51289;BME280;37372;52.294;5.152;2023-03-16T03:53:48;101518.19;;;4.00;76.73
51289;BME280;37372;52.294;5.152;2023-03-16T03:56:17;101512.25;;;3.96;77.56
51289;BME280;37372;52.294;5.152;2023-03-16T03:58:52;101520.75;;;3.93;77.37
51289;BME280;37372;52.294;5.152;2023-03-16T04:01:26;101514.44;;;3.93;77.62
51289;BME280;37372;52.294;5.152;2023-03-16T04:04:03;101515.63;;;3.98;77.63
51289;BME280;37372;52.294;5.152;2023-03-16T04:06:29;101503.75;;;3.91;77.22
51289;BME280;37372;52.294;5.152;2023-03-16T04:09:00;101509.53;;;3.96;76.78
51289;BME280;37372;52.294;5.152;2023-03-16T04:11:26;101506.16;;;3.94;77.43
51289;BME280;37372;52.294;5.152;2023-03-16T04:13:51;101503.56;;;3.93;77.61
51289;BME280;37372;52.294;5.152;2023-03-16T04:16:20;101493.06;;;3.98;77.42
51289;BME280;37372;52.294;5.152;2023-03-16T04:18:46;101492.56;;;3.94;77.33
51289;BME280;37372;52.294;5.152;2023-03-16T04:21:25;101498.50;;;3.90;77.95
51289;BME280;37372;52.294;5.152;2023-03-16T04:23:51;101493.25;;;3.88;77.87
51289;BME280;37372;52.294;5.152;2023-03-16T04:26:43;101487.47;;;3.91;77.73
51289;BME280;37372;52.294;5.152;2023-03-16T04:29:18;101489.00;;;3.94;77.52
51289;BME280;37372;52.294;5.152;2023-03-16T04:32:06;101484.22;;;4.04;77.50
51289;BME280;37372;52.294;5.152;2023-03-16T04:34:41;101477.63;;;3.98;77.62
51289;BME280;37372;52.294;5.152;2023-03-16T04:37:07;101486.97;;;3.96;77.99
51289;BME280;37372;52.294;5.152;2023-03-16T04:39:33;101481.72;;;3.94;78.29
51289;BME280;37372;52.294;5.152;2023-03-16T04:41:58;101484.25;;;3.96;78.06
51289;BME280;37372;52.294;5.152;2023-03-16T04:44:24;101477.78;;;3.97;77.60
51289;BME280;37372;52.294;5.152;2023-03-16T04:46:50;101470.66;;;4.04;77.44
51289;BME280;37372;52.294;5.152;2023-03-16T04:49:21;101475.44;;;3.94;77.89
51289;BME280;37372;52.294;5.152;2023-03-16T04:51:50;101470.16;;;3.92;78.57
51289;BME280;37372;52.294;5.152;2023-03-16T04:54:46;101469.66;;;3.97;78.33
51289;BME280;37372;52.294;5.152;2023-03-16T04:57:11;101471.34;;;3.98;78.82
51289;BME280;37372;52.294;5.152;2023-03-16T04:59:39;101483.22;;;3.97;78.11
51289;BME280;37372;52.294;5.152;2023-03-16T05:04:51;101477.09;;;4.03;77.87
51289;BME280;37372;52.294;5.152;2023-03-16T05:07:25;101482.72;;;4.01;77.68
51289;BME280;37372;52.294;5.152;2023-03-16T05:09:53;101481.88;;;4.01;78.08
51289;BME280;37372;52.294;5.152;2023-03-16T05:12:19;101481.00;;;4.08;78.55
51289;BME280;37372;52.294;5.152;2023-03-16T05:14:50;101474.56;;;4.01;78.72
51289;BME280;37372;52.294;5.152;2023-03-16T05:17:39;101471.69;;;4.03;79.36
51289;BME280;37372;52.294;5.152;2023-03-16T05:20:11;101474.56;;;4.01;78.63
51289;BME280;37372;52.294;5.152;2023-03-16T05:23:01;101465.44;;;3.94;78.77
51289;BME280;37372;52.294;5.152;2023-03-16T05:25:26;101477.63;;;3.98;78.91
51289;BME280;37372;52.294;5.152;2023-03-16T05:28:01;101470.31;;;4.07;78.21
51289;BME280;37372;52.294;5.152;2023-03-16T05:30:35;101468.31;;;4.01;79.25
51289;BME280;37372;52.294;5.152;2023-03-16T05:33:01;101475.75;;;4.07;79.13
51289;BME280;37372;52.294;5.152;2023-03-16T05:35:27;101459.97;;;4.02;79.45
51289;BME280;37372;52.294;5.152;2023-03-16T05:37:52;101456.25;;;4.03;79.66
51289;BME280;37372;52.294;5.152;2023-03-16T05:40:18;101454.91;;;3.99;79.24
51289;BME280;37372;52.294;5.152;2023-03-16T05:42:45;101439.78;;;3.97;79.96
51289;BME280;37372;52.294;5.152;2023-03-16T05:45:26;101444.91;;;4.00;79.72
51289;BME280;37372;52.294;5.152;2023-03-16T05:48:00;101432.00;;;3.94;80.12
51289;BME280;37372;52.294;5.152;2023-03-16T05:50:26;101432.16;;;3.92;80.35
51289;BME280;37372;52.294;5.152;2023-03-16T05:52:57;101425.38;;;3.96;80.50
51289;BME280;37372;52.294;5.152;2023-03-16T05:55:22;101431.84;;;3.95;79.99
51289;BME280;37372;52.294;5.152;2023-03-16T05:57:47;101435.56;;;3.94;79.92
51289;BME280;37372;52.294;5.152;2023-03-16T06:00:18;101431.16;;;3.93;80.71
51289;BME280;37372;52.294;5.152;2023-03-16T06:02:46;101434.03;;;3.92;80.66
51289;BME280;37372;52.294;5.152;2023-03-16T06:05:17;101436.06;;;4.06;80.08
51289;BME280;37372;52.294;5.152;2023-03-16T06:07:42;101433.53;;;3.96;80.42
51289;BME280;37372;52.294;5.152;2023-03-16T06:10:09;101431.66;;;3.97;80.50
51289;BME280;37372;52.294;5.152;2023-03-16T06:12:36;101426.88;;;3.99;81.10
51289;BME280;37372;52.294;5.152;2023-03-16T06:15:09;101423.81;;;4.10;80.06
51289;BME280;37372;52.294;5.152;2023-03-16T06:17:42;101420.09;;;4.03;80.07
51289;BME280;37372;52.294;5.152;2023-03-16T06:20:30;101429.44;;;4.00;80.56
51289;BME280;37372;52.294;5.152;2023-03-16T06:22:55;101430.13;;;4.02;80.71
51289;BME280;37372;52.294;5.152;2023-03-16T06:25:20;101425.72;;;4.01;80.45
51289;BME280;37372;52.294;5.152;2023-03-16T06:27:46;101425.69;;;4.10;81.13
51289;BME280;37372;52.294;5.152;2023-03-16T06:30:19;101427.38;;;4.11;80.48
51289;BME280;37372;52.294;5.152;2023-03-16T06:32:45;101419.41;;;4.09;80.57
51289;BME280;37372;52.294;5.152;2023-03-16T06:35:14;101417.91;;;4.06;79.91
51289;BME280;37372;52.294;5.152;2023-03-16T06:37:46;101414.97;;;4.16;80.40
51289;BME280;37372;52.294;5.152;2023-03-16T06:40:12;101410.38;;;4.17;80.64
51289;BME280;37372;52.294;5.152;2023-03-16T06:42:38;101403.25;;;4.16;80.78
51289;BME280;37372;52.294;5.152;2023-03-16T06:45:08;101403.25;;;4.16;80.45
51289;BME280;37372;52.294;5.152;2023-03-16T06:47:38;101400.38;;;4.17;80.39
51289;BME280;37372;52.294;5.152;2023-03-16T06:50:04;101401.34;;;4.24;80.52
51289;BME280;37372;52.294;5.152;2023-03-16T06:52:31;101406.41;;;4.35;80.47
51289;BME280;37372;52.294;5.152;2023-03-16T06:55:01;101400.63;;;4.39;79.90
51289;BME280;37372;52.294;5.152;2023-03-16T06:57:35;101385.00;;;4.41;80.55
51289;BME280;37372;52.294;5.152;2023-03-16T07:00:00;101387.91;;;4.39;80.41
51289;BME280;37372;52.294;5.152;2023-03-16T07:02:28;101382.38;;;4.55;80.09
51289;BME280;37372;52.294;5.152;2023-03-16T07:04:53;101383.06;;;4.57;79.54
51289;BME280;37372;52.294;5.152;2023-03-16T07:07:18;101386.28;;;4.53;79.55
51289;BME280;37372;52.294;5.152;2023-03-16T07:10:02;101390.31;;;4.57;79.47
51289;BME280;37372;52.294;5.152;2023-03-16T07:12:28;101385.94;;;4.56;79.47
51289;BME280;37372;52.294;5.152;2023-03-16T07:15:07;101383.34;;;4.62;79.81
51289;BME280;37372;52.294;5.152;2023-03-16T07:17:33;101380.28;;;4.66;78.70
51289;BME280;37372;52.294;5.152;2023-03-16T07:19:58;101383.84;;;4.66;78.58
51289;BME280;37372;52.294;5.152;2023-03-16T07:22:24;101387.22;;;4.68;79.46
51289;BME280;37372;52.294;5.152;2023-03-16T07:24:53;101378.75;;;4.63;78.84
51289;BME280;37372;52.294;5.152;2023-03-16T07:27:25;101371.63;;;4.62;79.13
51289;BME280;37372;52.294;5.152;2023-03-16T07:29:50;101362.09;;;4.66;79.04
51289;BME280;37372;52.294;5.152;2023-03-16T07:32:22;101379.91;;;4.69;78.49
51289;BME280;37372;52.294;5.152;2023-03-16T07:35:19;101379.91;;;4.69;78.66
51289;BME280;37372;52.294;5.152;2023-03-16T07:37:45;101381.59;;;4.70;78.09
51289;BME280;37372;52.294;5.152;2023-03-16T07:40:44;101384.50;;;4.68;78.61
51289;BME280;37372;52.294;5.152;2023-03-16T07:43:11;101387.34;;;4.75;78.53
51289;BME280;37372;52.294;5.152;2023-03-16T07:45:37;101383.47;;;4.69;78.26
51289;BME280;37372;52.294;5.152;2023-03-16T07:48:03;101381.44;;;4.71;78.85
51289;BME280;37372;52.294;5.152;2023-03-16T07:50:28;101381.44;;;4.71;79.83
51289;BME280;37372;52.294;5.152;2023-03-16T07:52:54;101386.16;;;4.77;79.32
51289;BME280;37372;52.294;5.152;2023-03-16T07:55:19;101380.03;;;4.75;79.86
51289;BME280;37372;52.294;5.152;2023-03-16T07:57:46;101378.47;;;4.81;79.44
51289;BME280;37372;52.294;5.152;2023-03-16T08:00:28;101389.66;;;4.86;79.31
51289;BME280;37372;52.294;5.152;2023-03-16T08:03:03;101386.53;;;4.97;79.65
51289;BME280;37372;52.294;5.152;2023-03-16T08:05:28;101368.28;;;5.06;78.21
51289;BME280;37372;52.294;5.152;2023-03-16T08:07:54;101371.50;;;5.09;78.34
51289;BME280;37372;52.294;5.152;2023-03-16T08:10:23;101369.47;;;5.26;77.80
51289;BME280;37372;52.294;5.152;2023-03-16T08:12:55;101366.81;;;5.41;77.12
51289;BME280;37372;52.294;5.152;2023-03-16T08:15:21;101366.50;;;5.36;77.03
51289;BME280;37372;52.294;5.152;2023-03-16T08:17:46;101366.81;;;5.41;76.39
51289;BME280;37372;52.294;5.152;2023-03-16T08:20:20;101369.34;;;5.42;76.98
51289;BME280;37372;52.294;5.152;2023-03-16T08:22:47;101371.38;;;5.40;76.41
51289;BME280;37372;52.294;5.152;2023-03-16T08:25:14;101366.72;;;5.49;75.95
51289;BME280;37372;52.294;5.152;2023-03-16T08:27:45;101372.72;;;5.59;75.69
51289;BME280;37372;52.294;5.152;2023-03-16T08:30:13;101371.22;;;5.57;75.56
51289;BME280;37372;52.294;5.152;2023-03-16T08:32:54;101373.56;;;5.60;75.68
51289;BME280;37372;52.294;5.152;2023-03-16T08:35:32;101383.16;;;5.70;75.37
51289;BME280;37372;52.294;5.152;2023-03-16T08:38:01;101379.78;;;5.68;74.54
51289;BME280;37372;52.294;5.152;2023-03-16T08:40:32;101377.81;;;5.77;73.70
51289;BME280;37372;52.294;5.152;2023-03-16T08:42:58;101380.19;;;5.80;73.50
51289;BME280;37372;52.294;5.152;2023-03-16T08:45:24;101383.38;;;5.84;73.73
51289;BME280;37372;52.294;5.152;2023-03-16T08:47:50;101375.69;;;5.87;72.26
51289;BME280;37372;52.294;5.152;2023-03-16T08:50:16;101369.50;;;6.08;72.31
51289;BME280;37372;52.294;5.152;2023-03-16T08:52:43;101363.00;;;6.24;70.94
51289;BME280;37372;52.294;5.152;2023-03-16T08:55:12;101348.84;;;6.14;71.26
51289;BME280;37372;52.294;5.152;2023-03-16T08:57:38;101352.03;;;6.17;70.14
51289;BME280;37372;52.294;5.152;2023-03-16T09:00:09;101356.38;;;6.12;71.51
51289;BME280;37372;52.294;5.152;2023-03-16T09:02:41;101352.59;;;6.28;69.96
51289;BME280;37372;52.294;5.152;2023-03-16T09:05:11;101365.16;;;6.29;69.60
51289;BME280;37372;52.294;5.152;2023-03-16T09:07:38;101356.03;;;6.36;69.45
51289;BME280;37372;52.294;5.152;2023-03-16T09:10:14;101358.47;;;6.46;68.56
51289;BME280;37372;52.294;5.152;2023-03-16T09:12:41;101357.13;;;6.57;68.53
51289;BME280;37372;52.294;5.152;2023-03-16T09:15:19;101359.03;;;6.41;68.37
51289;BME280;37372;52.294;5.152;2023-03-16T09:17:46;101354.81;;;6.39;69.10
51289;BME280;37372;52.294;5.152;2023-03-16T09:20:14;101351.72;;;6.42;68.91
51289;BME280;37372;52.294;5.152;2023-03-16T09:22:51;101354.06;;;6.45;69.50
51289;BME280;37372;52.294;5.152;2023-03-16T09:25:18;101351.41;;;6.51;68.24
51289;BME280;37372;52.294;5.152;2023-03-16T09:28:31;101347.84;;;6.51;68.41
51289;BME280;37372;52.294;5.152;2023-03-16T09:30:40;101352.97;;;6.61;67.04
51289;BME280;37372;52.294;5.152;2023-03-16T09:33:06;101347.53;;;6.61;68.30
51289;BME280;37372;52.294;5.152;2023-03-16T09:35:33;101349.81;;;6.57;66.95
51289;BME280;37372;52.294;5.152;2023-03-16T09:38:08;101349.28;;;6.68;66.97
51289;BME280;37372;52.294;5.152;2023-03-16T09:40:45;101330.88;;;6.70;66.45
51289;BME280;37372;52.294;5.152;2023-03-16T09:48:36;101337.56;;;7.11;65.84
51289;BME280;37372;52.294;5.152;2023-03-16T09:51:05;101344.59;;;7.26;66.21
51289;BME280;37372;52.294;5.152;2023-03-16T09:53:38;101333.75;;;7.61;64.97
51289;BME280;37372;52.294;5.152;2023-03-16T09:56:09;101323.13;;;7.45;64.28
51289;BME280;37372;52.294;5.152;2023-03-16T09:58:35;101328.53;;;7.66;64.08
51289;BME280;37372;52.294;5.152;2023-03-16T10:01:32;101320.75;;;7.63;64.97
51289;BME280;37372;52.294;5.152;2023-03-16T10:09:32;101324.63;;;7.75;62.29
51289;BME280;37372;52.294;5.152;2023-03-16T10:12:01;101310.53;;;7.78;62.61
51289;BME280;37372;52.294;5.152;2023-03-16T10:14:55;101315.88;;;7.86;62.68
51289;BME280;37372;52.294;5.152;2023-03-16T10:17:31;101315.50;;;8.03;62.81
51289;BME280;37372;52.294;5.152;2023-03-16T10:20:05;101313.06;;;8.21;62.23
51289;BME280;37372;52.294;5.152;2023-03-16T10:22:46;101302.84;;;8.36;61.46
51289;BME280;37372;52.294;5.152;2023-03-16T10:27:43;101296.72;;;8.34;60.18
51289;BME280;37372;52.294;5.152;2023-03-16T10:30:46;101296.78;;;8.41;59.46
51289;BME280;37372;52.294;5.152;2023-03-16T10:33:23;101292.16;;;8.41;59.29
51289;BME280;37372;52.294;5.152;2023-03-16T10:36:08;101276.19;;;8.38;60.04
51289;BME280;37372;52.294;5.152;2023-03-16T10:38:49;101289.25;;;8.56;59.75
51289;BME280;37372;52.294;5.152;2023-03-16T10:41:26;101298.94;;;8.59;59.72
51289;BME280;37372;52.294;5.152;2023-03-16T10:44:08;101288.03;;;8.72;59.25
51289;BME280;37372;52.294;5.152;2023-03-16T10:47:01;101282.13;;;8.88;58.47
51289;BME280;37372;52.294;5.152;2023-03-16T10:49:45;101277.31;;;9.04;58.40
51289;BME280;37372;52.294;5.152;2023-03-16T10:55:40;101269.50;;;9.27;57.78
51289;BME280;37372;52.294;5.152;2023-03-16T10:58:28;101251.38;;;9.39;56.12
51289;BME280;37372;52.294;5.152;2023-03-16T11:01:10;101255.41;;;9.43;57.37
51289;BME280;37372;52.294;5.152;2023-03-16T11:03:57;101253.25;;;9.59;56.66
51289;BME280;37372;52.294;5.152;2023-03-16T11:06:31;101255.97;;;9.59;56.34
51289;BME280;37372;52.294;5.152;2023-03-16T11:09:33;101245.28;;;9.44;55.61
51289;BME280;37372;52.294;5.152;2023-03-16T11:12:11;101253.72;;;9.29;57.11
51289;BME280;37372;52.294;5.152;2023-03-16T11:15:08;101244.16;;;9.65;56.37
51289;BME280;37372;52.294;5.152;2023-03-16T11:17:50;101245.84;;;9.79;55.63
51289;BME280;37372;52.294;5.152;2023-03-16T11:20:43;101250.00;;;9.88;55.22
51289;BME280;37372;52.294;5.152;2023-03-16T11:23:18;101235.13;;;9.64;54.76
51289;BME280;37372;52.294;5.152;2023-03-16T11:25:48;101236.44;;;9.48;55.52
51289;BME280;37372;52.294;5.152;2023-03-16T11:28:44;101228.59;;;9.59;56.54
51289;BME280;37372;52.294;5.152;2023-03-16T11:34:24;101229.84;;;9.63;55.72
51289;BME280;37372;52.294;5.152;2023-03-16T11:37:16;101233.13;;;9.85;55.62
51289;BME280;37372;52.294;5.152;2023-03-16T11:40:04;101233.50;;;10.01;54.01
51289;BME280;37372;52.294;5.152;2023-03-16T11:43:11;101233.69;;;10.07;55.29
51289;BME280;37372;52.294;5.152;2023-03-16T11:46:08;101230.25;;;10.31;55.09
51289;BME280;37372;52.294;5.152;2023-03-16T11:51:42;101238.34;;;10.51;52.71
51289;BME280;37372;52.294;5.152;2023-03-16T12:00:53;101220.63;;;10.47;53.81
51289;BME280;37372;52.294;5.152;2023-03-16T12:09:44;101225.06;;;11.04;50.64
51289;BME280;37372;52.294;5.152;2023-03-16T12:12:43;101218.00;;;11.15;50.91
51289;BME280;37372;52.294;5.152;2023-03-16T12:21:01;101210.53;;;10.97;50.29
51289;BME280;37372;52.294;5.152;2023-03-16T12:23:53;101212.44;;;11.22;49.39
51289;BME280;37372;52.294;5.152;2023-03-16T12:26:23;101208.56;;;11.29;48.91
51289;BME280;37372;52.294;5.152;2023-03-16T12:28:55;101206.44;;;11.68;49.00
51289;BME280;37372;52.294;5.152;2023-03-16T12:37:07;101192.72;;;11.86;47.61
51289;BME280;37372;52.294;5.152;2023-03-16T12:39:54;101174.06;;;11.88;47.61
51289;BME280;37372;52.294;5.152;2023-03-16T12:45:57;101167.97;;;11.68;47.53
51289;BME280;37372;52.294;5.152;2023-03-16T12:48:31;101159.34;;;11.83;47.22
51289;BME280;37372;52.294;5.152;2023-03-16T12:51:32;101149.44;;;12.12;46.64
51289;BME280;37372;52.294;5.152;2023-03-16T12:54:01;101151.94;;;12.13;46.35
51289;BME280;37372;52.294;5.152;2023-03-16T12:56:34;101132.22;;;12.16;45.97
51289;BME280;37372;52.294;5.152;2023-03-16T12:59:18;101101.38;;;12.14;46.07
51289;BME280;37372;52.294;5.152;2023-03-16T13:02:01;101104.47;;;12.06;45.88
51289;BME280;37372;52.294;5.152;2023-03-16T13:04:40;101103.25;;;12.02;46.60
51289;BME280;37372;52.294;5.152;2023-03-16T13:07:14;101107.81;;;12.08;47.05
51289;BME280;37372;52.294;5.152;2023-03-16T13:10:06;101099.69;;;12.13;46.88
51289;BME280;37372;52.294;5.152;2023-03-16T13:13:19;101098.91;;;12.25;45.62
51289;BME280;37372;52.294;5.152;2023-03-16T13:19:15;101107.41;;;12.35;44.63
51289;BME280;37372;52.294;5.152;2023-03-16T13:21:41;101098.06;;;12.36;45.12
51289;BME280;37372;52.294;5.152;2023-03-16T13:26:50;101090.16;;;12.28;44.20
51289;BME280;37372;52.294;5.152;2023-03-16T13:29:54;101105.88;;;12.51;43.99
51289;BME280;37372;52.294;5.152;2023-03-16T13:32:21;101099.88;;;12.42;44.74
51289;BME280;37372;52.294;5.152;2023-03-16T13:34:51;101096.19;;;12.48;43.65
51289;BME280;37372;52.294;5.152;2023-03-16T13:37:19;101099.66;;;12.67;43.01
51289;BME280;37372;52.294;5.152;2023-03-16T13:40:00;101090.69;;;12.71;43.67
51289;BME280;37372;52.294;5.152;2023-03-16T13:42:32;101082.53;;;13.00;42.72
51289;BME280;37372;52.294;5.152;2023-03-16T13:45:17;101074.66;;;12.92;43.27
51289;BME280;37372;52.294;5.152;2023-03-16T13:48:17;101071.88;;;12.92;42.32
51289;BME280;37372;52.294;5.152;2023-03-16T13:50:44;101075.13;;;12.89;42.97
51289;BME280;37372;52.294;5.152;2023-03-16T13:53:30;101072.84;;;12.86;43.97
51289;BME280;37372;52.294;5.152;2023-03-16T13:55:58;101086.88;;;12.96;42.54
51289;BME280;37372;52.294;5.152;2023-03-16T13:58:46;101074.44;;;12.82;41.35
51289;BME280;37372;52.294;5.152;2023-03-16T14:01:25;101074.06;;;12.90;41.97
51289;BME280;37372;52.294;5.152;2023-03-16T14:03:53;101077.28;;;12.75;42.27
51289;BME280;37372;52.294;5.152;2023-03-16T14:06:26;101073.81;;;12.80;41.96
51289;BME280;37372;52.294;5.152;2023-03-16T14:09:03;101069.38;;;12.79;42.00
51289;BME280;37372;52.294;5.152;2023-03-16T14:11:30;101079.56;;;13.01;41.21
51289;BME280;37372;52.294;5.152;2023-03-16T14:14:11;101061.34;;;13.00;39.91
51289;BME280;37372;52.294;5.152;2023-03-16T14:16:50;101068.31;;;12.68;39.91
51289;BME280;37372;52.294;5.152;2023-03-16T14:19:21;101057.91;;;12.58;40.62
51289;BME280;37372;52.294;5.152;2023-03-16T14:21:49;101050.72;;;12.57;40.22
51289;BME280;37372;52.294;5.152;2023-03-16T14:24:50;101046.31;;;12.44;40.69
51289;BME280;37372;52.294;5.152;2023-03-16T14:27:24;101043.44;;;12.51;40.68
51289;BME280;37372;52.294;5.152;2023-03-16T14:30:13;101056.56;;;12.49;40.73
51289;BME280;37372;52.294;5.152;2023-03-16T14:32:52;101044.38;;;12.33;41.46
51289;BME280;37372;52.294;5.152;2023-03-16T14:35:25;101041.75;;;12.38;41.68
51289;BME280;37372;52.294;5.152;2023-03-16T14:37:55;101036.69;;;12.35;42.04
51289;BME280;37372;52.294;5.152;2023-03-16T14:40:31;101043.03;;;12.36;42.89
51289;BME280;37372;52.294;5.152;2023-03-16T14:43:26;101037.06;;;12.39;43.52
51289;BME280;37372;52.294;5.152;2023-03-16T14:45:53;101030.50;;;12.40;42.83
51289;BME280;37372;52.294;5.152;2023-03-16T14:48:37;101021.53;;;12.33;43.62